createdAt,value
2023-02-11T00:02:05.318Z,37.28
2023-02-11T00:04:38.331Z,30.77
2023-02-11T00:07:11.283Z,29.65
2023-02-11T00:09:45.647Z,37.25
2023-02-11T00:12:19.692Z,29.17
2023-02-11T00:17:25.749Z,28.58
2023-02-11T00:19:58.738Z,29.35
2023-02-11T00:22:32.292Z,35.63
2023-02-11T00:25:07.368Z,25.30
2023-02-11T00:27:40.368Z,34.40
2023-02-11T00:30:13.953Z,28.92
2023-02-11T00:32:46.970Z,31.98
2023-02-11T00:35:19.941Z,32.03
2023-02-11T00:37:54.511Z,33.85
2023-02-11T00:40:29.097Z,40.05
2023-02-11T00:43:02.076Z,35.83
2023-02-11T00:45:37.533Z,35.70
2023-02-11T00:48:10.512Z,33.85
2023-02-11T00:50:43.462Z,32.38
2023-02-11T00:53:16.489Z,36.42
2023-02-11T00:55:51.057Z,39.53
2023-02-11T00:58:24.277Z,29.80
2023-02-11T01:00:58.369Z,35.53
2023-02-11T01:03:31.582Z,37.80
2023-02-11T01:06:05.096Z,37.23
2023-02-11T01:08:38.670Z,38.30
2023-02-11T01:11:16.402Z,34.03
2023-02-11T01:13:51.595Z,40.30
2023-02-11T01:16:24.569Z,34.83
2023-02-11T01:18:59.910Z,33.80
2023-02-11T01:21:32.983Z,33.05
2023-02-11T01:24:06.243Z,41.10
2023-02-11T01:26:40.637Z,33.70
2023-02-11T01:29:13.657Z,26.13
2023-02-11T01:31:46.679Z,31.48
2023-02-11T01:34:19.702Z,33.33
2023-02-11T01:36:52.670Z,34.83
2023-02-11T01:39:25.763Z,42.67
2023-02-11T01:42:00.185Z,29.20
2023-02-11T01:44:40.304Z,32.70
2023-02-11T01:47:13.320Z,34.08
2023-02-11T01:49:50.869Z,33.43
2023-02-11T01:52:29.082Z,32.83
2023-02-11T01:55:24.027Z,30.52
2023-02-11T01:58:03.678Z,31.58
2023-02-11T02:00:39.330Z,28.65
2023-02-11T02:03:16.509Z,31.50
2023-02-11T02:05:56.637Z,28.38
2023-02-11T02:08:36.162Z,31.58
2023-02-11T02:11:09.216Z,30.92
2023-02-11T02:13:45.768Z,27.58
2023-02-11T02:16:22.402Z,31.85
2023-02-11T02:19:14.109Z,28.20
2023-02-11T02:22:19.602Z,28.75
2023-02-11T02:25:07.733Z,29.00
2023-02-11T02:27:49.078Z,30.67
2023-02-11T02:30:51.130Z,34.65
2023-02-11T02:33:34.358Z,31.77
2023-02-11T02:36:15.571Z,31.27
2023-02-11T02:38:55.063Z,30.13
2023-02-11T02:41:31.151Z,30.80
2023-02-11T02:44:04.520Z,27.70
2023-02-11T02:46:38.367Z,35.42
2023-02-11T02:49:16.343Z,34.67
2023-02-11T02:52:05.071Z,34.00
2023-02-11T02:55:01.098Z,30.08
2023-02-11T02:58:04.632Z,38.03
2023-02-11T03:00:45.174Z,32.67
2023-02-11T03:03:26.476Z,36.38
2023-02-11T03:06:06.232Z,36.10
2023-02-11T03:08:42.469Z,35.38
2023-02-11T03:11:19.343Z,38.25
2023-02-11T03:13:53.832Z,35.72
2023-02-11T03:16:28.500Z,37.45
2023-02-11T03:19:06.814Z,38.78
2023-02-11T03:21:43.817Z,40.22
2023-02-11T03:24:21.829Z,42.83
2023-02-11T03:26:57.525Z,39.90
2023-02-11T03:29:36.618Z,36.88
2023-02-11T03:32:16.592Z,39.20
2023-02-11T03:34:54.080Z,42.88
2023-02-11T03:37:32.970Z,43.20
2023-02-11T03:40:09.928Z,37.13
2023-02-11T03:42:47.059Z,38.17
2023-02-11T03:45:22.833Z,37.58
2023-02-11T03:47:58.829Z,41.35
2023-02-11T03:50:34.945Z,36.97
2023-02-11T03:53:10.691Z,41.00
2023-02-11T03:55:45.046Z,37.35
2023-02-11T03:58:18.107Z,43.25
2023-02-11T04:00:51.337Z,34.80
2023-02-11T04:03:24.537Z,39.08
2023-02-11T04:05:57.601Z,38.15
2023-02-11T04:08:32.916Z,31.93
2023-02-11T04:11:06.014Z,36.38
2023-02-11T04:13:38.928Z,35.40
2023-02-11T04:16:11.907Z,33.35
2023-02-11T04:18:44.953Z,37.60
2023-02-11T04:21:17.988Z,39.13
2023-02-11T04:23:52.309Z,35.87
2023-02-11T04:26:25.500Z,35.00
2023-02-11T04:29:01.074Z,37.80
2023-02-11T04:31:34.165Z,34.78
2023-02-11T04:34:07.136Z,38.58
2023-02-11T04:36:40.172Z,37.05
2023-02-11T04:39:14.586Z,36.03
2023-02-11T04:41:47.537Z,34.13
2023-02-11T04:44:20.524Z,35.67
2023-02-11T04:46:53.455Z,35.30
2023-02-11T04:49:26.647Z,36.55
2023-02-11T04:51:59.619Z,40.20
2023-02-11T04:54:33.959Z,43.17
2023-02-11T04:57:06.951Z,38.97
2023-02-11T04:59:40.688Z,39.78
2023-02-11T05:02:13.617Z,38.47
2023-02-11T05:04:46.710Z,35.72
2023-02-11T05:07:19.725Z,35.13
2023-02-11T05:09:54.097Z,37.25
2023-02-11T05:12:27.153Z,37.22
2023-02-11T05:15:00.149Z,41.20
2023-02-11T05:17:33.156Z,33.27
2023-02-11T05:20:07.145Z,38.20
2023-02-11T05:25:14.222Z,32.78
2023-02-11T05:27:47.330Z,38.92
2023-02-11T05:30:20.592Z,38.17
2023-02-11T05:32:53.576Z,39.05
2023-02-11T05:35:26.563Z,35.70
2023-02-11T05:37:59.492Z,36.10
2023-02-11T05:40:33.798Z,34.33
2023-02-11T05:43:06.765Z,38.95
2023-02-11T05:45:39.715Z,35.30
2023-02-11T05:48:12.712Z,39.53
2023-02-11T05:50:45.986Z,52.38
2023-02-11T05:53:18.942Z,38.53
2023-02-11T05:55:54.231Z,34.75
2023-02-11T05:58:27.258Z,36.70
2023-02-11T06:01:00.228Z,45.70
2023-02-11T06:03:33.285Z,41.40
2023-02-11T06:06:10.450Z,43.97
2023-02-11T06:08:43.415Z,50.53
2023-02-11T06:11:20.246Z,41.80
2023-02-11T06:13:53.237Z,40.17
2023-02-11T06:16:26.299Z,45.42
2023-02-11T06:18:59.290Z,45.73
2023-02-11T06:21:43.202Z,41.07
2023-02-11T06:24:24.665Z,44.55
2023-02-11T06:27:11.306Z,39.60
2023-02-11T06:29:44.407Z,41.03
2023-02-11T06:32:39.490Z,42.30
2023-02-11T06:35:12.102Z,41.47
2023-02-11T06:37:45.527Z,47.00
2023-02-11T06:40:18.603Z,45.30
2023-02-11T06:42:53.022Z,45.63
2023-02-11T06:45:26.030Z,48.95
2023-02-11T06:47:59.041Z,43.67
2023-02-11T06:50:32.045Z,46.95
2023-02-11T06:53:05.086Z,45.22
2023-02-11T06:55:38.101Z,46.77
2023-02-11T06:58:12.592Z,47.17
2023-02-11T07:00:45.616Z,44.70
2023-02-11T07:03:18.638Z,46.57
2023-02-11T07:05:52.109Z,42.17
2023-02-11T07:08:25.336Z,49.22
2023-02-11T07:10:58.341Z,54.03
2023-02-11T07:13:32.739Z,52.47
2023-02-11T07:16:07.559Z,48.80
2023-02-11T07:18:40.829Z,52.72
2023-02-11T07:21:15.271Z,48.97
2023-02-11T07:23:49.016Z,46.80
2023-02-11T07:26:24.228Z,49.83
2023-02-11T07:28:58.603Z,46.33
2023-02-11T07:31:32.459Z,51.50
2023-02-11T07:34:05.593Z,53.05
2023-02-11T07:36:38.731Z,51.77
2023-02-11T07:39:11.854Z,48.80
2023-02-11T07:41:47.856Z,50.90
2023-02-11T07:44:22.241Z,52.95
2023-02-11T07:46:55.416Z,49.20
2023-02-11T07:49:28.501Z,45.95
2023-02-11T07:52:03.561Z,48.83
2023-02-11T07:54:36.492Z,51.58
2023-02-11T07:57:12.620Z,54.53
2023-02-11T07:59:49.917Z,60.92
2023-02-11T08:02:23.022Z,52.25
2023-02-11T08:04:56.032Z,56.33
2023-02-11T08:07:29.765Z,55.55
2023-02-11T08:10:02.749Z,50.63
2023-02-11T08:12:35.731Z,52.13
2023-02-11T08:15:10.885Z,57.55
2023-02-11T08:17:43.912Z,54.30
2023-02-11T08:20:17.001Z,58.20
2023-02-11T08:22:50.184Z,57.88
2023-02-11T08:25:23.271Z,59.03
2023-02-11T08:27:56.325Z,48.97
2023-02-11T08:30:30.794Z,57.53
2023-02-11T08:33:03.876Z,52.05
2023-02-11T08:35:37.281Z,56.83
2023-02-11T08:38:10.256Z,57.22
2023-02-11T08:40:43.268Z,56.67
2023-02-11T08:43:16.601Z,54.03
2023-02-11T08:45:51.162Z,60.88
2023-02-11T08:48:24.357Z,55.45
2023-02-11T08:51:00.448Z,50.08
2023-02-11T08:53:33.427Z,54.70
2023-02-11T08:56:07.230Z,53.30
2023-02-11T08:58:40.193Z,51.08
2023-02-11T09:01:16.416Z,48.92
2023-02-11T09:03:49.904Z,47.40
2023-02-11T09:06:24.406Z,51.25
2023-02-11T09:08:58.959Z,51.70
2023-02-11T09:11:33.994Z,50.88
2023-02-11T09:14:07.134Z,52.63
2023-02-11T09:16:41.501Z,48.03
2023-02-11T09:19:14.613Z,53.22
2023-02-11T09:21:48.017Z,49.43
2023-02-11T09:24:20.998Z,48.92
2023-02-11T09:26:53.960Z,46.25
2023-02-11T09:29:26.957Z,53.85
2023-02-11T09:32:01.473Z,50.28
2023-02-11T09:34:34.579Z,49.00
2023-02-11T09:37:09.321Z,52.10
2023-02-11T09:39:42.350Z,42.55
2023-02-11T09:42:48.684Z,45.42
2023-02-11T09:45:25.598Z,48.78
2023-02-11T09:48:05.847Z,44.90
2023-02-11T09:50:43.645Z,48.53
2023-02-11T09:53:22.226Z,50.85
2023-02-11T09:56:01.664Z,44.08
2023-02-11T09:58:37.013Z,50.85
2023-02-11T10:01:24.412Z,50.25
2023-02-11T10:04:09.022Z,51.42
2023-02-11T10:06:45.813Z,51.78
2023-02-11T10:09:45.032Z,46.88
2023-02-11T10:12:29.563Z,52.15
2023-02-11T10:15:16.591Z,52.40
2023-02-11T10:18:07.799Z,56.13
2023-02-11T10:20:56.574Z,56.72
2023-02-11T10:23:34.651Z,61.63
2023-02-11T10:26:14.037Z,63.13
2023-02-11T10:28:49.222Z,52.25
2023-02-11T10:31:26.950Z,50.28
2023-02-11T10:34:04.790Z,57.45
2023-02-11T10:36:42.987Z,56.70
2023-02-11T10:39:18.828Z,60.33
2023-02-11T10:41:55.607Z,62.97
2023-02-11T10:44:32.310Z,59.53
2023-02-11T10:47:13.025Z,65.88
2023-02-11T10:49:50.456Z,56.33
2023-02-11T10:52:26.598Z,61.33
2023-02-11T10:55:06.040Z,60.28
2023-02-11T10:57:44.574Z,63.17
2023-02-11T11:00:36.912Z,55.67
2023-02-11T11:03:19.594Z,63.75
2023-02-11T11:05:56.604Z,67.53
2023-02-11T11:08:42.279Z,57.47
2023-02-11T11:11:17.595Z,62.00
2023-02-11T11:13:58.327Z,64.10
2023-02-11T11:16:32.295Z,68.00
2023-02-11T11:19:21.413Z,59.60
2023-02-11T11:21:56.140Z,59.65
2023-02-11T11:24:34.512Z,65.63
2023-02-11T11:27:19.329Z,63.08
2023-02-11T11:29:54.920Z,69.82
2023-02-11T11:32:32.419Z,64.93
2023-02-11T11:35:21.696Z,65.53
2023-02-11T11:37:59.964Z,75.72
2023-02-11T11:40:37.358Z,71.43
2023-02-11T11:43:23.097Z,66.82
2023-02-11T11:45:58.308Z,66.72
2023-02-11T11:48:36.117Z,71.40
2023-02-11T11:51:12.380Z,75.47
2023-02-11T11:53:52.352Z,65.03
2023-02-11T11:56:28.781Z,70.10
2023-02-11T11:59:03.739Z,73.03
2023-02-11T12:01:49.563Z,71.32
2023-02-11T12:04:37.549Z,69.43
2023-02-11T12:07:25.966Z,73.18
2023-02-11T12:10:33.819Z,72.13
2023-02-11T12:13:21.942Z,72.50
2023-02-11T12:16:02.959Z,76.50
2023-02-11T12:18:55.078Z,83.93
2023-02-11T12:21:42.392Z,82.10
2023-02-11T12:24:33.275Z,77.38
2023-02-11T12:27:15.126Z,74.75
2023-02-11T12:30:02.285Z,78.53
2023-02-11T12:32:40.286Z,76.80
2023-02-11T12:35:33.571Z,77.03
2023-02-11T12:38:33.448Z,75.50
2023-02-11T12:41:47.159Z,76.20
2023-02-11T12:44:31.096Z,68.30
2023-02-11T12:47:15.309Z,75.55
2023-02-11T12:50:01.798Z,73.95
2023-02-11T12:52:49.917Z,70.22
2023-02-11T12:55:25.632Z,66.63
2023-02-11T12:58:00.294Z,71.53
2023-02-11T13:00:45.069Z,70.47
2023-02-11T13:03:25.602Z,76.85
2023-02-11T13:06:03.661Z,71.35
2023-02-11T13:08:40.142Z,80.97
2023-02-11T13:11:16.556Z,79.18
2023-02-11T13:13:56.170Z,75.18
2023-02-11T13:16:36.899Z,71.32
2023-02-11T13:19:25.155Z,74.90
2023-02-11T13:22:09.754Z,72.15
2023-02-11T13:24:45.778Z,61.35
2023-02-11T13:27:30.923Z,66.43
2023-02-11T13:30:28.335Z,73.18
2023-02-11T13:33:19.569Z,68.72
2023-02-11T13:36:22.430Z,69.03
2023-02-11T13:38:59.844Z,73.85
2023-02-11T13:41:42.168Z,78.30
2023-02-11T13:44:26.980Z,68.57
2023-02-11T13:47:03.292Z,77.25
2023-02-11T13:49:40.788Z,74.65
2023-02-11T13:52:26.872Z,69.38
2023-02-11T13:55:10.391Z,68.07
2023-02-11T13:57:43.534Z,76.30
2023-02-11T14:00:51.745Z,81.70
2023-02-11T14:03:57.107Z,81.30
2023-02-11T14:07:02.543Z,76.25
2023-02-11T14:09:44.334Z,82.03
2023-02-11T14:12:34.611Z,72.47
2023-02-11T14:15:23.153Z,92.57
2023-02-11T14:17:56.237Z,75.28
2023-02-11T14:20:40.672Z,79.30
2023-02-11T14:23:28.440Z,74.93
2023-02-11T14:26:19.900Z,77.97
2023-02-11T14:28:59.609Z,67.53
2023-02-11T14:31:41.353Z,67.28
2023-02-11T14:34:39.830Z,75.88
2023-02-11T14:37:23.703Z,71.60
2023-02-11T14:40:09.415Z,66.47
2023-02-11T14:42:43.867Z,66.95
2023-02-11T14:45:21.122Z,67.63
2023-02-11T14:47:59.499Z,70.05
2023-02-11T14:50:41.611Z,73.68
2023-02-11T14:53:17.453Z,65.57
2023-02-11T14:55:53.415Z,70.50
2023-02-11T14:58:29.594Z,68.40
2023-02-11T15:01:23.497Z,65.30
2023-02-11T15:03:58.741Z,65.20
2023-02-11T15:06:35.515Z,66.95
2023-02-11T15:09:17.296Z,55.28
2023-02-11T15:11:52.098Z,65.80
2023-02-11T15:14:28.262Z,58.90
2023-02-11T15:17:04.552Z,60.55
2023-02-11T15:19:41.907Z,60.80
2023-02-11T15:22:20.282Z,59.53
2023-02-11T15:25:01.396Z,53.92
2023-02-11T15:27:40.236Z,53.03
2023-02-11T15:30:31.532Z,53.83
2023-02-11T15:33:06.942Z,51.22
2023-02-11T15:35:42.425Z,47.17
2023-02-11T15:38:15.505Z,57.45
2023-02-11T15:40:57.536Z,52.10
2023-02-11T15:43:44.590Z,50.25
2023-02-11T15:46:21.708Z,48.63
2023-02-11T15:48:56.490Z,50.13
2023-02-11T15:51:32.955Z,46.28
2023-02-11T15:54:09.420Z,51.85
2023-02-11T15:56:44.635Z,52.88
2023-02-11T15:59:21.608Z,45.17
2023-02-11T16:01:59.005Z,44.92
2023-02-11T16:04:32.508Z,47.13
2023-02-11T16:07:06.556Z,47.10
2023-02-11T16:12:27.072Z,49.40
2023-02-11T16:15:03.910Z,46.53
2023-02-11T16:17:38.493Z,49.22
2023-02-11T16:20:19.571Z,48.50
2023-02-11T16:22:52.853Z,44.50
2023-02-11T16:25:25.993Z,47.60
2023-02-11T16:27:59.054Z,42.83
2023-02-11T16:30:47.995Z,40.25
2023-02-11T16:33:22.638Z,45.92
2023-02-11T16:35:55.678Z,41.10
2023-02-11T16:38:29.179Z,39.43
2023-02-11T16:41:05.327Z,44.50
2023-02-11T16:43:38.486Z,38.40
2023-02-11T16:46:16.410Z,39.30
2023-02-11T16:48:50.912Z,41.03
2023-02-11T16:51:24.549Z,42.28
2023-02-11T16:54:01.194Z,45.08
2023-02-11T16:56:34.251Z,44.03
2023-02-11T16:59:09.542Z,39.75
2023-02-11T17:01:44.325Z,39.05
2023-02-11T17:04:21.862Z,34.35
2023-02-11T17:07:00.104Z,36.78
2023-02-11T17:09:33.641Z,38.70
2023-02-11T17:12:07.430Z,40.03
2023-02-11T17:14:40.756Z,36.88
2023-02-11T17:17:27.341Z,34.38
2023-02-11T17:20:45.558Z,38.30
2023-02-11T17:23:19.653Z,34.85
2023-02-11T17:25:58.556Z,35.17
2023-02-11T17:28:32.435Z,37.88
2023-02-11T17:33:41.134Z,39.53
2023-02-11T17:36:15.476Z,38.55
2023-02-11T17:38:48.457Z,34.50
2023-02-11T17:41:21.445Z,33.93
2023-02-11T17:43:54.731Z,39.63
2023-02-11T17:46:29.306Z,35.70
2023-02-11T17:49:03.146Z,34.08
2023-02-11T17:51:39.552Z,36.05
2023-02-11T17:54:16.046Z,36.13
2023-02-11T17:56:50.795Z,31.25
2023-02-11T17:59:25.256Z,36.88
2023-02-11T18:01:58.441Z,38.22
2023-02-11T18:04:32.251Z,36.40
2023-02-11T18:07:06.703Z,42.05
2023-02-11T18:09:40.512Z,40.63
2023-02-11T18:12:13.532Z,38.42
2023-02-11T18:14:46.538Z,34.77
2023-02-11T18:17:19.494Z,39.13
2023-02-11T18:19:55.910Z,44.73
2023-02-11T18:22:33.710Z,33.90
2023-02-11T18:25:08.167Z,39.50
2023-02-11T18:27:41.151Z,33.97
2023-02-11T18:30:17.662Z,35.60
2023-02-11T18:32:54.652Z,33.53
2023-02-11T18:35:27.704Z,37.60
2023-02-11T18:38:03.102Z,36.80
2023-02-11T18:40:36.260Z,32.35
2023-02-11T18:43:09.271Z,35.80
2023-02-11T18:45:44.043Z,36.27
2023-02-11T18:48:18.213Z,40.45
2023-02-11T18:50:51.194Z,31.90
2023-02-11T18:53:26.160Z,36.37
2023-02-11T18:55:59.159Z,35.95
2023-02-11T18:58:32.195Z,39.97
2023-02-11T19:01:12.338Z,38.97
2023-02-11T19:03:49.236Z,40.17
2023-02-11T19:06:25.433Z,43.95
2023-02-11T19:09:01.431Z,42.08
2023-02-11T19:11:51.057Z,42.33
2023-02-11T19:14:26.735Z,44.38
2023-02-11T19:17:01.595Z,45.83
2023-02-11T19:19:36.835Z,42.40
2023-02-11T19:22:13.137Z,47.20
2023-02-11T19:24:47.585Z,43.75
2023-02-11T19:27:20.639Z,39.05
2023-02-11T19:29:53.641Z,39.40
2023-02-11T19:32:26.593Z,45.60
2023-02-11T19:34:59.653Z,42.70
2023-02-11T19:37:32.683Z,41.58
2023-02-11T19:40:08.895Z,47.63
2023-02-11T19:42:41.916Z,39.10
2023-02-11T19:45:15.620Z,40.87
2023-02-11T19:47:50.876Z,45.20
2023-02-11T19:50:24.043Z,39.45
2023-02-11T19:52:57.630Z,37.55
2023-02-11T19:55:32.069Z,42.10
2023-02-11T19:58:05.032Z,45.50
2023-02-11T20:00:38.179Z,36.23
2023-02-11T20:03:11.310Z,47.47
2023-02-11T20:05:47.119Z,40.72
2023-02-11T20:08:20.090Z,38.75
2023-02-11T20:10:54.801Z,45.83
2023-02-11T20:13:29.731Z,42.42
2023-02-11T20:16:07.797Z,44.10
2023-02-11T20:18:44.007Z,41.05
2023-02-11T20:21:19.856Z,37.15
2023-02-11T20:23:53.990Z,54.40
2023-02-11T20:26:30.748Z,40.15
2023-02-11T20:29:04.126Z,39.75
2023-02-11T20:31:37.413Z,43.63
2023-02-11T20:34:11.470Z,44.78
2023-02-11T20:39:26.854Z,44.33
2023-02-11T20:42:02.622Z,42.15
2023-02-11T20:44:36.685Z,37.30
2023-02-11T20:47:09.803Z,50.00
2023-02-11T20:49:42.919Z,49.33
2023-02-11T20:52:15.963Z,43.78
2023-02-11T20:54:48.945Z,36.97
2023-02-11T20:57:23.497Z,43.73
2023-02-11T20:59:56.529Z,47.97
2023-02-11T21:02:30.417Z,73.50
2023-02-11T21:07:38.846Z,34.30
2023-02-11T21:10:12.959Z,44.15
2023-02-11T21:15:24.224Z,39.92
2023-02-11T21:17:57.306Z,41.95
2023-02-11T21:20:30.394Z,44.37
2023-02-11T21:23:03.470Z,37.08
2023-02-11T21:25:36.424Z,40.45
2023-02-11T21:28:10.887Z,39.30
2023-02-11T21:30:44.244Z,41.40
2023-02-11T21:33:17.271Z,42.67
2023-02-11T21:35:55.752Z,41.07
2023-02-11T21:38:29.249Z,41.25
2023-02-11T21:41:04.581Z,35.10
2023-02-11T21:43:39.494Z,41.90
2023-02-11T21:46:15.128Z,44.90
2023-02-11T21:48:48.867Z,39.72
2023-02-11T21:51:23.435Z,40.83
2023-02-11T21:53:57.376Z,35.88
2023-02-11T21:59:05.383Z,38.20
2023-02-11T22:01:38.429Z,46.08
2023-02-11T22:04:11.404Z,35.47
2023-02-11T22:06:46.621Z,42.35
2023-02-11T22:09:19.664Z,44.67
2023-02-11T22:11:53.664Z,34.40
2023-02-11T22:17:01.953Z,33.28
2023-02-11T22:19:35.127Z,34.50
2023-02-11T22:22:09.383Z,34.83
2023-02-11T22:24:42.798Z,42.63
2023-02-11T22:27:19.177Z,39.88
2023-02-11T22:29:54.493Z,27.20
2023-02-11T22:32:27.631Z,29.02
2023-02-11T22:35:00.622Z,45.13
2023-02-11T22:37:33.628Z,32.20
2023-02-11T22:40:07.954Z,36.43
2023-02-11T22:42:40.919Z,35.53
2023-02-11T22:45:15.392Z,27.00
2023-02-11T22:47:48.327Z,19.67
2023-02-11T22:50:21.365Z,14.03
2023-02-11T22:52:54.350Z,21.73
2023-02-11T22:55:27.703Z,21.85
2023-02-11T22:58:00.647Z,16.67
2023-02-11T23:00:39.363Z,18.53
2023-02-11T23:03:14.127Z,12.13
2023-02-11T23:05:47.192Z,8.07
2023-02-11T23:08:20.178Z,5.55
2023-02-11T23:10:53.374Z,8.57
2023-02-11T23:13:26.345Z,6.30
2023-02-11T23:16:00.726Z,9.97
2023-02-11T23:18:33.854Z,8.23
2023-02-11T23:21:12.354Z,8.10
2023-02-11T23:23:46.774Z,9.98
2023-02-11T23:26:19.897Z,8.52
2023-02-11T23:28:53.015Z,11.05
2023-02-11T23:31:29.834Z,6.25
2023-02-11T23:34:02.975Z,8.35
2023-02-11T23:36:36.284Z,8.07
2023-02-11T23:39:09.247Z,7.85
2023-02-11T23:41:42.211Z,5.77
2023-02-11T23:44:15.182Z,4.90
2023-02-11T23:46:49.560Z,4.43
2023-02-11T23:49:22.482Z,6.10
2023-02-11T23:51:55.435Z,4.03
2023-02-11T23:54:28.427Z,5.88
2023-02-11T23:57:01.400Z,5.05
2023-02-11T23:59:34.415Z,5.60
